sensor_id;sensor_type;location;lat;lon;timestamp;P1;durP1;ratioP1;P2;durP2;ratioP2
46415;SDS011;32620;51.704;7.822;2023-12-20T00:00:02;26.40;;;12.57;;
46415;SDS011;32620;51.704;7.822;2023-12-20T00:02:28;28.17;;;12.63;;
46415;SDS011;32620;51.704;7.822;2023-12-20T00:04:53;30.95;;;14.35;;
46415;SDS011;32620;51.704;7.822;2023-12-20T00:07:19;29.40;;;13.82;;
46415;SDS011;32620;51.704;7.822;2023-12-20T00:09:44;34.05;;;15.45;;
46415;SDS011;32620;51.704;7.822;2023-12-20T00:12:10;32.45;;;16.05;;
46415;SDS011;32620;51.704;7.822;2023-12-20T00:14:36;37.22;;;16.63;;
46415;SDS011;32620;51.704;7.822;2023-12-20T00:17:01;35.70;;;16.73;;
46415;SDS011;32620;51.704;7.822;2023-12-20T00:19:27;38.35;;;17.38;;
46415;SDS011;32620;51.704;7.822;2023-12-20T00:21:52;35.67;;;17.73;;
46415;SDS011;32620;51.704;7.822;2023-12-20T00:24:18;39.50;;;17.10;;
46415;SDS011;32620;51.704;7.822;2023-12-20T00:26:43;42.30;;;18.33;;
46415;SDS011;32620;51.704;7.822;2023-12-20T00:29:09;43.60;;;17.75;;
46415;SDS011;32620;51.704;7.822;2023-12-20T00:31:34;49.00;;;19.27;;
46415;SDS011;32620;51.704;7.822;2023-12-20T00:34:00;44.75;;;19.00;;
46415;SDS011;32620;51.704;7.822;2023-12-20T00:36:26;42.72;;;18.30;;
46415;SDS011;32620;51.704;7.822;2023-12-20T00:38:52;41.88;;;18.17;;
46415;SDS011;32620;51.704;7.822;2023-12-20T00:41:17;47.15;;;18.88;;
46415;SDS011;32620;51.704;7.822;2023-12-20T00:43:43;51.03;;;19.83;;
46415;SDS011;32620;51.704;7.822;2023-12-20T00:46:09;44.95;;;19.38;;
46415;SDS011;32620;51.704;7.822;2023-12-20T00:48:35;43.70;;;19.73;;
46415;SDS011;32620;51.704;7.822;2023-12-20T00:51:00;46.63;;;18.45;;
46415;SDS011;32620;51.704;7.822;2023-12-20T00:53:26;46.17;;;20.13;;
46415;SDS011;32620;51.704;7.822;2023-12-20T00:55:51;53.33;;;20.65;;
46415;SDS011;32620;51.704;7.822;2023-12-20T00:58:17;44.42;;;17.98;;
46415;SDS011;32620;51.704;7.822;2023-12-20T01:00:42;49.92;;;19.20;;
46415;SDS011;32620;51.704;7.822;2023-12-20T01:03:08;45.05;;;17.80;;
46415;SDS011;32620;51.704;7.822;2023-12-20T01:05:34;49.92;;;18.17;;
46415;SDS011;32620;51.704;7.822;2023-12-20T01:07:59;47.47;;;18.05;;
46415;SDS011;32620;51.704;7.822;2023-12-20T01:10:27;42.15;;;17.10;;
46415;SDS011;32620;51.704;7.822;2023-12-20T01:12:54;39.28;;;16.25;;
46415;SDS011;32620;51.704;7.822;2023-12-20T01:15:20;43.38;;;15.70;;
46415;SDS011;32620;51.704;7.822;2023-12-20T01:17:45;44.25;;;16.25;;
46415;SDS011;32620;51.704;7.822;2023-12-20T01:20:11;39.13;;;16.40;;
46415;SDS011;32620;51.704;7.822;2023-12-20T01:22:36;39.78;;;15.68;;
46415;SDS011;32620;51.704;7.822;2023-12-20T01:25:02;39.15;;;15.50;;
46415;SDS011;32620;51.704;7.822;2023-12-20T01:27:28;31.90;;;13.85;;
46415;SDS011;32620;51.704;7.822;2023-12-20T01:29:54;32.28;;;14.13;;
46415;SDS011;32620;51.704;7.822;2023-12-20T01:32:19;36.45;;;14.10;;
46415;SDS011;32620;51.704;7.822;2023-12-20T01:34:45;31.02;;;11.52;;
46415;SDS011;32620;51.704;7.822;2023-12-20T01:37:10;27.92;;;12.13;;
46415;SDS011;32620;51.704;7.822;2023-12-20T01:39:36;32.30;;;11.05;;
46415;SDS011;32620;51.704;7.822;2023-12-20T01:42:01;36.08;;;12.75;;
46415;SDS011;32620;51.704;7.822;2023-12-20T01:44:27;38.85;;;12.32;;
46415;SDS011;32620;51.704;7.822;2023-12-20T01:46:52;27.08;;;12.43;;
46415;SDS011;32620;51.704;7.822;2023-12-20T01:49:19;35.55;;;12.63;;
46415;SDS011;32620;51.704;7.822;2023-12-20T01:51:45;33.20;;;12.80;;
46415;SDS011;32620;51.704;7.822;2023-12-20T01:54:11;27.48;;;11.68;;
46415;SDS011;32620;51.704;7.822;2023-12-20T01:56:37;31.77;;;12.23;;
46415;SDS011;32620;51.704;7.822;2023-12-20T01:59:04;32.72;;;12.98;;
46415;SDS011;32620;51.704;7.822;2023-12-20T02:01:31;32.97;;;13.32;;
46415;SDS011;32620;51.704;7.822;2023-12-20T02:03:57;32.30;;;12.23;;
46415;SDS011;32620;51.704;7.822;2023-12-20T02:06:23;36.22;;;13.70;;
46415;SDS011;32620;51.704;7.822;2023-12-20T02:08:54;34.83;;;12.68;;
46415;SDS011;32620;51.704;7.822;2023-12-20T02:11:19;31.70;;;13.18;;
46415;SDS011;32620;51.704;7.822;2023-12-20T02:13:46;33.50;;;13.15;;
46415;SDS011;32620;51.704;7.822;2023-12-20T02:16:11;31.17;;;14.00;;
46415;SDS011;32620;51.704;7.822;2023-12-20T02:18:37;28.88;;;13.45;;
46415;SDS011;32620;51.704;7.822;2023-12-20T02:21:04;35.28;;;14.23;;
46415;SDS011;32620;51.704;7.822;2023-12-20T02:23:30;29.95;;;13.63;;
46415;SDS011;32620;51.704;7.822;2023-12-20T02:25:56;27.90;;;13.00;;
46415;SDS011;32620;51.704;7.822;2023-12-20T02:28:22;37.85;;;13.90;;
46415;SDS011;32620;51.704;7.822;2023-12-20T02:30:48;27.73;;;13.18;;
46415;SDS011;32620;51.704;7.822;2023-12-20T02:33:14;30.95;;;12.93;;
46415;SDS011;32620;51.704;7.822;2023-12-20T02:35:40;36.17;;;12.25;;
46415;SDS011;32620;51.704;7.822;2023-12-20T02:38:06;36.35;;;11.48;;
46415;SDS011;32620;51.704;7.822;2023-12-20T02:40:31;29.95;;;11.00;;
46415;SDS011;32620;51.704;7.822;2023-12-20T02:42:57;31.85;;;10.60;;
46415;SDS011;32620;51.704;7.822;2023-12-20T02:45:23;31.33;;;10.32;;
46415;SDS011;32620;51.704;7.822;2023-12-20T02:47:48;24.88;;;9.65;;
46415;SDS011;32620;51.704;7.822;2023-12-20T02:50:14;26.05;;;9.32;;
46415;SDS011;32620;51.704;7.822;2023-12-20T02:52:39;28.25;;;8.45;;
46415;SDS011;32620;51.704;7.822;2023-12-20T02:55:05;28.35;;;9.30;;
46415;SDS011;32620;51.704;7.822;2023-12-20T02:57:30;25.25;;;8.73;;
46415;SDS011;32620;51.704;7.822;2023-12-20T02:59:57;24.73;;;8.18;;
46415;SDS011;32620;51.704;7.822;2023-12-20T03:02:22;30.65;;;8.98;;
46415;SDS011;32620;51.704;7.822;2023-12-20T03:04:48;28.17;;;8.95;;
46415;SDS011;32620;51.704;7.822;2023-12-20T03:07:13;37.28;;;8.50;;
46415;SDS011;32620;51.704;7.822;2023-12-20T03:09:39;23.35;;;8.82;;
46415;SDS011;32620;51.704;7.822;2023-12-20T03:12:04;25.95;;;9.07;;
46415;SDS011;32620;51.704;7.822;2023-12-20T03:14:30;23.50;;;8.85;;
46415;SDS011;32620;51.704;7.822;2023-12-20T03:16:55;38.13;;;10.23;;
46415;SDS011;32620;51.704;7.822;2023-12-20T03:19:21;27.27;;;10.38;;
46415;SDS011;32620;51.704;7.822;2023-12-20T03:21:46;29.02;;;10.40;;
46415;SDS011;32620;51.704;7.822;2023-12-20T03:24:12;25.77;;;9.50;;
46415;SDS011;32620;51.704;7.822;2023-12-20T03:26:37;27.98;;;9.98;;
46415;SDS011;32620;51.704;7.822;2023-12-20T03:29:03;26.55;;;9.50;;
46415;SDS011;32620;51.704;7.822;2023-12-20T03:31:29;26.17;;;8.75;;
46415;SDS011;32620;51.704;7.822;2023-12-20T03:33:54;34.08;;;9.98;;
46415;SDS011;32620;51.704;7.822;2023-12-20T03:36:20;25.75;;;8.30;;
46415;SDS011;32620;51.704;7.822;2023-12-20T03:38:45;22.40;;;8.23;;
46415;SDS011;32620;51.704;7.822;2023-12-20T03:41:11;34.15;;;9.18;;
46415;SDS011;32620;51.704;7.822;2023-12-20T03:43:36;28.58;;;8.88;;
46415;SDS011;32620;51.704;7.822;2023-12-20T03:46:02;21.38;;;7.97;;
46415;SDS011;32620;51.704;7.822;2023-12-20T03:48:30;38.13;;;9.02;;
46415;SDS011;32620;51.704;7.822;2023-12-20T03:50:56;30.65;;;10.13;;
46415;SDS011;32620;51.704;7.822;2023-12-20T03:53:22;31.00;;;9.60;;
46415;SDS011;32620;51.704;7.822;2023-12-20T03:55:48;32.08;;;9.82;;
46415;SDS011;32620;51.704;7.822;2023-12-20T03:58:13;24.23;;;8.60;;
46415;SDS011;32620;51.704;7.822;2023-12-20T04:00:39;35.17;;;10.05;;
46415;SDS011;32620;51.704;7.822;2023-12-20T04:03:04;26.92;;;9.13;;
46415;SDS011;32620;51.704;7.822;2023-12-20T04:05:30;23.75;;;9.48;;
46415;SDS011;32620;51.704;7.822;2023-12-20T04:07:56;19.20;;;8.43;;
46415;SDS011;32620;51.704;7.822;2023-12-20T04:10:21;25.40;;;9.43;;
46415;SDS011;32620;51.704;7.822;2023-12-20T04:12:47;29.73;;;9.50;;
46415;SDS011;32620;51.704;7.822;2023-12-20T04:15:12;32.42;;;9.52;;
46415;SDS011;32620;51.704;7.822;2023-12-20T04:17:38;24.60;;;8.85;;
46415;SDS011;32620;51.704;7.822;2023-12-20T04:20:04;31.17;;;9.43;;
46415;SDS011;32620;51.704;7.822;2023-12-20T04:22:30;24.42;;;10.63;;
46415;SDS011;32620;51.704;7.822;2023-12-20T04:24:55;27.35;;;9.93;;
46415;SDS011;32620;51.704;7.822;2023-12-20T04:27:21;28.30;;;9.38;;
46415;SDS011;32620;51.704;7.822;2023-12-20T04:29:46;24.13;;;9.70;;
46415;SDS011;32620;51.704;7.822;2023-12-20T04:32:12;34.33;;;10.70;;
46415;SDS011;32620;51.704;7.822;2023-12-20T04:34:37;26.65;;;9.52;;
46415;SDS011;32620;51.704;7.822;2023-12-20T04:37:03;36.80;;;9.40;;
46415;SDS011;32620;51.704;7.822;2023-12-20T04:39:29;29.98;;;9.65;;
46415;SDS011;32620;51.704;7.822;2023-12-20T04:41:54;23.08;;;8.60;;
46415;SDS011;32620;51.704;7.822;2023-12-20T04:44:20;26.92;;;8.80;;
46415;SDS011;32620;51.704;7.822;2023-12-20T04:46:45;25.83;;;8.48;;
46415;SDS011;32620;51.704;7.822;2023-12-20T04:49:11;38.83;;;10.60;;
46415;SDS011;32620;51.704;7.822;2023-12-20T04:51:36;35.72;;;10.07;;
46415;SDS011;32620;51.704;7.822;2023-12-20T04:54:03;29.35;;;11.57;;
46415;SDS011;32620;51.704;7.822;2023-12-20T04:56:28;33.33;;;11.88;;
46415;SDS011;32620;51.704;7.822;2023-12-20T04:58:54;44.25;;;13.40;;
46415;SDS011;32620;51.704;7.822;2023-12-20T05:01:19;32.53;;;11.90;;
46415;SDS011;32620;51.704;7.822;2023-12-20T05:03:46;38.00;;;12.18;;
46415;SDS011;32620;51.704;7.822;2023-12-20T05:06:11;30.45;;;12.38;;
46415;SDS011;32620;51.704;7.822;2023-12-20T05:08:37;32.78;;;13.05;;
46415;SDS011;32620;51.704;7.822;2023-12-20T05:11:02;32.65;;;11.98;;
46415;SDS011;32620;51.704;7.822;2023-12-20T05:13:28;28.83;;;12.20;;
46415;SDS011;32620;51.704;7.822;2023-12-20T05:15:53;37.78;;;12.68;;
46415;SDS011;32620;51.704;7.822;2023-12-20T05:18:20;31.80;;;11.70;;
46415;SDS011;32620;51.704;7.822;2023-12-20T05:20:46;44.83;;;13.80;;
46415;SDS011;32620;51.704;7.822;2023-12-20T05:23:12;33.97;;;13.23;;
46415;SDS011;32620;51.704;7.822;2023-12-20T05:25:38;34.88;;;13.48;;
46415;SDS011;32620;51.704;7.822;2023-12-20T05:28:04;40.08;;;12.60;;
46415;SDS011;32620;51.704;7.822;2023-12-20T05:30:29;32.50;;;11.30;;
46415;SDS011;32620;51.704;7.822;2023-12-20T05:32:55;37.95;;;12.00;;
46415;SDS011;32620;51.704;7.822;2023-12-20T05:35:20;44.08;;;12.45;;
46415;SDS011;32620;51.704;7.822;2023-12-20T05:37:48;35.22;;;12.27;;
46415;SDS011;32620;51.704;7.822;2023-12-20T05:40:14;38.35;;;13.25;;
46415;SDS011;32620;51.704;7.822;2023-12-20T05:42:39;31.73;;;11.75;;
46415;SDS011;32620;51.704;7.822;2023-12-20T05:45:05;36.90;;;12.55;;
46415;SDS011;32620;51.704;7.822;2023-12-20T05:47:31;39.28;;;12.65;;
46415;SDS011;32620;51.704;7.822;2023-12-20T05:49:56;38.00;;;13.02;;
46415;SDS011;32620;51.704;7.822;2023-12-20T05:52:22;33.80;;;11.48;;
46415;SDS011;32620;51.704;7.822;2023-12-20T05:54:47;34.80;;;12.25;;
46415;SDS011;32620;51.704;7.822;2023-12-20T05:57:13;39.55;;;12.75;;
46415;SDS011;32620;51.704;7.822;2023-12-20T05:59:39;31.25;;;13.65;;
46415;SDS011;32620;51.704;7.822;2023-12-20T06:02:05;42.03;;;13.88;;
46415;SDS011;32620;51.704;7.822;2023-12-20T06:04:30;35.17;;;12.45;;
46415;SDS011;32620;51.704;7.822;2023-12-20T06:06:56;39.55;;;14.45;;
46415;SDS011;32620;51.704;7.822;2023-12-20T06:09:22;36.08;;;14.27;;
46415;SDS011;32620;51.704;7.822;2023-12-20T06:11:48;39.40;;;14.00;;
46415;SDS011;32620;51.704;7.822;2023-12-20T06:14:13;42.83;;;15.65;;
46415;SDS011;32620;51.704;7.822;2023-12-20T06:16:39;47.33;;;16.30;;
46415;SDS011;32620;51.704;7.822;2023-12-20T06:19:04;45.45;;;17.33;;
46415;SDS011;32620;51.704;7.822;2023-12-20T06:21:30;48.50;;;16.42;;
46415;SDS011;32620;51.704;7.822;2023-12-20T06:23:55;47.45;;;18.05;;
46415;SDS011;32620;51.704;7.822;2023-12-20T06:26:23;47.03;;;17.92;;
46415;SDS011;32620;51.704;7.822;2023-12-20T06:28:49;39.78;;;17.65;;
46415;SDS011;32620;51.704;7.822;2023-12-20T06:31:14;42.80;;;16.33;;
46415;SDS011;32620;51.704;7.822;2023-12-20T06:33:40;43.70;;;17.33;;
46415;SDS011;32620;51.704;7.822;2023-12-20T06:36:06;44.63;;;17.73;;
46415;SDS011;32620;51.704;7.822;2023-12-20T06:38:31;47.38;;;18.05;;
46415;SDS011;32620;51.704;7.822;2023-12-20T06:40:57;47.03;;;16.48;;
46415;SDS011;32620;51.704;7.822;2023-12-20T06:43:23;51.47;;;17.73;;
46415;SDS011;32620;51.704;7.822;2023-12-20T06:45:49;49.03;;;18.80;;
46415;SDS011;32620;51.704;7.822;2023-12-20T06:48:15;52.95;;;19.48;;
46415;SDS011;32620;51.704;7.822;2023-12-20T06:50:41;42.00;;;19.25;;
46415;SDS011;32620;51.704;7.822;2023-12-20T06:53:07;47.00;;;19.35;;
46415;SDS011;32620;51.704;7.822;2023-12-20T06:55:33;49.08;;;19.77;;
46415;SDS011;32620;51.704;7.822;2023-12-20T06:58:00;50.42;;;21.10;;
46415;SDS011;32620;51.704;7.822;2023-12-20T07:00:27;45.78;;;20.38;;
46415;SDS011;32620;51.704;7.822;2023-12-20T07:02:52;49.85;;;19.13;;
46415;SDS011;32620;51.704;7.822;2023-12-20T07:05:18;46.25;;;19.58;;
46415;SDS011;32620;51.704;7.822;2023-12-20T07:07:45;54.38;;;19.98;;
46415;SDS011;32620;51.704;7.822;2023-12-20T07:10:11;53.10;;;21.45;;
46415;SDS011;32620;51.704;7.822;2023-12-20T07:12:38;52.63;;;20.73;;
46415;SDS011;32620;51.704;7.822;2023-12-20T07:15:03;45.28;;;19.58;;
46415;SDS011;32620;51.704;7.822;2023-12-20T07:17:32;54.33;;;20.45;;
46415;SDS011;32620;51.704;7.822;2023-12-20T07:19:58;47.28;;;22.02;;
46415;SDS011;32620;51.704;7.822;2023-12-20T07:22:28;53.83;;;20.13;;
46415;SDS011;32620;51.704;7.822;2023-12-20T07:24:56;52.05;;;19.98;;
46415;SDS011;32620;51.704;7.822;2023-12-20T07:27:22;54.67;;;20.25;;
46415;SDS011;32620;51.704;7.822;2023-12-20T07:29:48;41.85;;;19.42;;
46415;SDS011;32620;51.704;7.822;2023-12-20T07:32:14;46.92;;;18.88;;
46415;SDS011;32620;51.704;7.822;2023-12-20T07:34:41;48.42;;;19.92;;
46415;SDS011;32620;51.704;7.822;2023-12-20T07:37:08;58.47;;;21.48;;
46415;SDS011;32620;51.704;7.822;2023-12-20T07:39:35;56.47;;;19.70;;
46415;SDS011;32620;51.704;7.822;2023-12-20T07:42:01;39.40;;;18.58;;
46415;SDS011;32620;51.704;7.822;2023-12-20T07:44:28;52.17;;;19.65;;
46415;SDS011;32620;51.704;7.822;2023-12-20T07:46:54;45.15;;;18.13;;
46415;SDS011;32620;51.704;7.822;2023-12-20T07:49:20;47.53;;;18.67;;
46415;SDS011;32620;51.704;7.822;2023-12-20T07:51:46;42.47;;;18.60;;
46415;SDS011;32620;51.704;7.822;2023-12-20T07:54:11;43.95;;;18.10;;
46415;SDS011;32620;51.704;7.822;2023-12-20T07:56:38;44.80;;;17.73;;
46415;SDS011;32620;51.704;7.822;2023-12-20T07:59:05;42.40;;;19.45;;
46415;SDS011;32620;51.704;7.822;2023-12-20T08:01:30;47.38;;;19.20;;
46415;SDS011;32620;51.704;7.822;2023-12-20T08:03:56;47.70;;;19.45;;
46415;SDS011;32620;51.704;7.822;2023-12-20T08:06:22;43.33;;;18.02;;
46415;SDS011;32620;51.704;7.822;2023-12-20T08:08:48;41.92;;;18.48;;
46415;SDS011;32620;51.704;7.822;2023-12-20T08:11:14;54.70;;;19.00;;
46415;SDS011;32620;51.704;7.822;2023-12-20T08:13:39;44.67;;;18.17;;
46415;SDS011;32620;51.704;7.822;2023-12-20T08:16:05;51.20;;;18.90;;
46415;SDS011;32620;51.704;7.822;2023-12-20T08:18:30;36.92;;;16.95;;
46415;SDS011;32620;51.704;7.822;2023-12-20T08:20:56;39.30;;;17.92;;
46415;SDS011;32620;51.704;7.822;2023-12-20T08:23:21;42.95;;;18.05;;
46415;SDS011;32620;51.704;7.822;2023-12-20T08:25:47;47.85;;;18.58;;
46415;SDS011;32620;51.704;7.822;2023-12-20T08:28:13;44.92;;;17.40;;
46415;SDS011;32620;51.704;7.822;2023-12-20T08:30:39;35.92;;;15.27;;
46415;SDS011;32620;51.704;7.822;2023-12-20T08:33:05;43.55;;;15.18;;
46415;SDS011;32620;51.704;7.822;2023-12-20T08:35:36;42.65;;;16.83;;
46415;SDS011;32620;51.704;7.822;2023-12-20T08:38:01;43.30;;;16.90;;
46415;SDS011;32620;51.704;7.822;2023-12-20T08:40:29;40.20;;;16.77;;
46415;SDS011;32620;51.704;7.822;2023-12-20T08:42:55;40.70;;;17.65;;
46415;SDS011;32620;51.704;7.822;2023-12-20T08:45:21;40.13;;;16.00;;
46415;SDS011;32620;51.704;7.822;2023-12-20T08:47:47;32.95;;;15.52;;
46415;SDS011;32620;51.704;7.822;2023-12-20T08:50:13;37.80;;;15.75;;
46415;SDS011;32620;51.704;7.822;2023-12-20T08:52:40;41.72;;;17.08;;
46415;SDS011;32620;51.704;7.822;2023-12-20T08:55:07;37.08;;;15.30;;
46415;SDS011;32620;51.704;7.822;2023-12-20T08:57:35;41.65;;;15.30;;
46415;SDS011;32620;51.704;7.822;2023-12-20T09:00:02;38.03;;;16.65;;
46415;SDS011;32620;51.704;7.822;2023-12-20T09:02:29;44.38;;;16.55;;
46415;SDS011;32620;51.704;7.822;2023-12-20T09:04:56;38.70;;;15.85;;
46415;SDS011;32620;51.704;7.822;2023-12-20T09:07:23;38.53;;;16.52;;
46415;SDS011;32620;51.704;7.822;2023-12-20T09:09:50;38.63;;;15.73;;
46415;SDS011;32620;51.704;7.822;2023-12-20T09:12:18;40.40;;;16.17;;
46415;SDS011;32620;51.704;7.822;2023-12-20T09:14:45;41.97;;;16.20;;
46415;SDS011;32620;51.704;7.822;2023-12-20T09:17:12;45.97;;;16.98;;
46415;SDS011;32620;51.704;7.822;2023-12-20T09:19:40;43.30;;;15.38;;
46415;SDS011;32620;51.704;7.822;2023-12-20T09:22:06;37.47;;;14.60;;
46415;SDS011;32620;51.704;7.822;2023-12-20T09:24:33;39.10;;;15.77;;
46415;SDS011;32620;51.704;7.822;2023-12-20T09:27:00;34.92;;;14.43;;
46415;SDS011;32620;51.704;7.822;2023-12-20T09:29:27;39.95;;;15.55;;
46415;SDS011;32620;51.704;7.822;2023-12-20T09:31:54;40.33;;;15.38;;
46415;SDS011;32620;51.704;7.822;2023-12-20T09:34:22;41.40;;;15.18;;
46415;SDS011;32620;51.704;7.822;2023-12-20T09:36:49;32.97;;;14.75;;
46415;SDS011;32620;51.704;7.822;2023-12-20T09:39:16;42.83;;;14.63;;
46415;SDS011;32620;51.704;7.822;2023-12-20T09:41:45;43.53;;;15.43;;
46415;SDS011;32620;51.704;7.822;2023-12-20T09:44:14;35.45;;;15.57;;
46415;SDS011;32620;51.704;7.822;2023-12-20T09:46:43;32.38;;;13.70;;
46415;SDS011;32620;51.704;7.822;2023-12-20T09:49:11;34.28;;;14.32;;
46415;SDS011;32620;51.704;7.822;2023-12-20T09:51:39;42.28;;;16.30;;
46415;SDS011;32620;51.704;7.822;2023-12-20T09:54:09;31.05;;;13.85;;
46415;SDS011;32620;51.704;7.822;2023-12-20T09:56:36;44.65;;;15.13;;
46415;SDS011;32620;51.704;7.822;2023-12-20T09:59:03;28.58;;;14.32;;
46415;SDS011;32620;51.704;7.822;2023-12-20T10:01:31;38.08;;;15.32;;
46415;SDS011;32620;51.704;7.822;2023-12-20T10:03:58;32.50;;;14.68;;
46415;SDS011;32620;51.704;7.822;2023-12-20T10:06:27;40.38;;;15.07;;
46415;SDS011;32620;51.704;7.822;2023-12-20T10:08:54;42.92;;;15.82;;
46415;SDS011;32620;51.704;7.822;2023-12-20T10:11:21;39.28;;;14.70;;
46415;SDS011;32620;51.704;7.822;2023-12-20T10:13:49;36.83;;;13.95;;
46415;SDS011;32620;51.704;7.822;2023-12-20T10:16:15;37.47;;;14.10;;
46415;SDS011;32620;51.704;7.822;2023-12-20T10:18:42;43.55;;;15.43;;
46415;SDS011;32620;51.704;7.822;2023-12-20T10:21:09;40.88;;;15.63;;
46415;SDS011;32620;51.704;7.822;2023-12-20T10:23:36;41.65;;;14.85;;
46415;SDS011;32620;51.704;7.822;2023-12-20T10:26:04;33.90;;;13.48;;
46415;SDS011;32620;51.704;7.822;2023-12-20T10:28:34;40.38;;;13.70;;
46415;SDS011;32620;51.704;7.822;2023-12-20T10:31:02;35.40;;;12.80;;
46415;SDS011;32620;51.704;7.822;2023-12-20T10:33:30;36.08;;;13.32;;
46415;SDS011;32620;51.704;7.822;2023-12-20T10:35:57;37.33;;;13.52;;
46415;SDS011;32620;51.704;7.822;2023-12-20T10:38:24;41.50;;;12.70;;
46415;SDS011;32620;51.704;7.822;2023-12-20T10:40:54;26.83;;;11.57;;
46415;SDS011;32620;51.704;7.822;2023-12-20T10:43:21;32.80;;;12.57;;
46415;SDS011;32620;51.704;7.822;2023-12-20T10:45:48;30.98;;;11.98;;
46415;SDS011;32620;51.704;7.822;2023-12-20T10:48:15;34.33;;;11.98;;
46415;SDS011;32620;51.704;7.822;2023-12-20T10:50:42;30.80;;;12.98;;
46415;SDS011;32620;51.704;7.822;2023-12-20T10:53:09;29.13;;;11.90;;
46415;SDS011;32620;51.704;7.822;2023-12-20T10:55:37;31.38;;;11.02;;
46415;SDS011;32620;51.704;7.822;2023-12-20T10:58:07;28.05;;;10.32;;
46415;SDS011;32620;51.704;7.822;2023-12-20T11:00:36;25.90;;;9.77;;
46415;SDS011;32620;51.704;7.822;2023-12-20T11:03:06;28.20;;;10.35;;
46415;SDS011;32620;51.704;7.822;2023-12-20T11:05:54;25.27;;;10.35;;
46415;SDS011;32620;51.704;7.822;2023-12-20T11:08:24;34.90;;;10.98;;
46415;SDS011;32620;51.704;7.822;2023-12-20T11:13:57;36.42;;;10.80;;
46415;SDS011;32620;51.704;7.822;2023-12-20T11:16:26;34.35;;;11.30;;
46415;SDS011;32620;51.704;7.822;2023-12-20T11:18:52;26.20;;;9.45;;
46415;SDS011;32620;51.704;7.822;2023-12-20T11:21:19;32.90;;;9.30;;
46415;SDS011;32620;51.704;7.822;2023-12-20T11:23:47;22.83;;;9.25;;
46415;SDS011;32620;51.704;7.822;2023-12-20T11:26:17;35.15;;;9.82;;
46415;SDS011;32620;51.704;7.822;2023-12-20T11:28:49;28.60;;;9.25;;
46415;SDS011;32620;51.704;7.822;2023-12-20T11:31:15;23.48;;;9.40;;
46415;SDS011;32620;51.704;7.822;2023-12-20T11:33:42;25.67;;;9.93;;
46415;SDS011;32620;51.704;7.822;2023-12-20T11:36:14;28.42;;;9.95;;
46415;SDS011;32620;51.704;7.822;2023-12-20T11:38:56;25.55;;;9.73;;
46415;SDS011;32620;51.704;7.822;2023-12-20T11:41:25;26.30;;;10.18;;
46415;SDS011;32620;51.704;7.822;2023-12-20T11:43:53;33.08;;;10.23;;
46415;SDS011;32620;51.704;7.822;2023-12-20T11:46:21;36.80;;;10.88;;
46415;SDS011;32620;51.704;7.822;2023-12-20T11:48:48;25.70;;;10.30;;
46415;SDS011;32620;51.704;7.822;2023-12-20T11:51:15;32.67;;;10.90;;
46415;SDS011;32620;51.704;7.822;2023-12-20T11:53:42;25.75;;;11.10;;
46415;SDS011;32620;51.704;7.822;2023-12-20T11:56:09;32.45;;;10.80;;
46415;SDS011;32620;51.704;7.822;2023-12-20T11:58:37;39.17;;;12.50;;
46415;SDS011;32620;51.704;7.822;2023-12-20T12:01:04;34.85;;;11.55;;
46415;SDS011;32620;51.704;7.822;2023-12-20T12:03:34;29.75;;;10.65;;
46415;SDS011;32620;51.704;7.822;2023-12-20T12:06:01;31.20;;;10.07;;
46415;SDS011;32620;51.704;7.822;2023-12-20T12:08:29;31.05;;;9.23;;
46415;SDS011;32620;51.704;7.822;2023-12-20T12:10:55;26.35;;;8.85;;
46415;SDS011;32620;51.704;7.822;2023-12-20T12:13:21;28.73;;;9.02;;
46415;SDS011;32620;51.704;7.822;2023-12-20T12:15:47;26.50;;;8.52;;
46415;SDS011;32620;51.704;7.822;2023-12-20T12:18:15;23.55;;;8.60;;
46415;SDS011;32620;51.704;7.822;2023-12-20T12:20:41;23.73;;;8.00;;
46415;SDS011;32620;51.704;7.822;2023-12-20T12:23:07;24.27;;;7.97;;
46415;SDS011;32620;51.704;7.822;2023-12-20T12:25:35;23.88;;;7.40;;
46415;SDS011;32620;51.704;7.822;2023-12-20T12:28:02;26.00;;;7.45;;
46415;SDS011;32620;51.704;7.822;2023-12-20T12:30:28;18.00;;;6.60;;
46415;SDS011;32620;51.704;7.822;2023-12-20T12:32:56;23.15;;;6.57;;
46415;SDS011;32620;51.704;7.822;2023-12-20T12:35:23;20.55;;;6.70;;
46415;SDS011;32620;51.704;7.822;2023-12-20T12:37:50;16.90;;;6.95;;
46415;SDS011;32620;51.704;7.822;2023-12-20T12:40:18;18.73;;;6.72;;
46415;SDS011;32620;51.704;7.822;2023-12-20T12:42:46;31.95;;;8.63;;
46415;SDS011;32620;51.704;7.822;2023-12-20T12:45:14;28.67;;;9.55;;
46415;SDS011;32620;51.704;7.822;2023-12-20T12:47:42;26.77;;;10.23;;
46415;SDS011;32620;51.704;7.822;2023-12-20T12:50:10;28.38;;;10.93;;
46415;SDS011;32620;51.704;7.822;2023-12-20T12:52:38;24.33;;;10.82;;
46415;SDS011;32620;51.704;7.822;2023-12-20T12:55:06;31.17;;;11.68;;
46415;SDS011;32620;51.704;7.822;2023-12-20T12:57:34;28.35;;;12.68;;
46415;SDS011;32620;51.704;7.822;2023-12-20T13:00:02;26.65;;;12.82;;
46415;SDS011;32620;51.704;7.822;2023-12-20T13:02:35;30.92;;;13.25;;
46415;SDS011;32620;51.704;7.822;2023-12-20T13:05:06;29.17;;;13.15;;
46415;SDS011;32620;51.704;7.822;2023-12-20T13:07:34;25.70;;;14.43;;
46415;SDS011;32620;51.704;7.822;2023-12-20T13:10:04;31.23;;;14.52;;
46415;SDS011;32620;51.704;7.822;2023-12-20T13:12:32;36.72;;;15.65;;
46415;SDS011;32620;51.704;7.822;2023-12-20T13:15:00;29.48;;;12.93;;
46415;SDS011;32620;51.704;7.822;2023-12-20T13:17:28;31.48;;;14.65;;
46415;SDS011;32620;51.704;7.822;2023-12-20T13:19:56;33.85;;;15.38;;
46415;SDS011;32620;51.704;7.822;2023-12-20T13:22:24;35.28;;;16.88;;
46415;SDS011;32620;51.704;7.822;2023-12-20T13:24:53;34.22;;;17.00;;
46415;SDS011;32620;51.704;7.822;2023-12-20T13:27:21;35.63;;;16.20;;
46415;SDS011;32620;51.704;7.822;2023-12-20T13:29:49;35.42;;;16.88;;
46415;SDS011;32620;51.704;7.822;2023-12-20T13:32:16;33.05;;;16.65;;
46415;SDS011;32620;51.704;7.822;2023-12-20T13:34:45;35.35;;;16.75;;
46415;SDS011;32620;51.704;7.822;2023-12-20T13:37:13;28.63;;;16.02;;
46415;SDS011;32620;51.704;7.822;2023-12-20T13:39:41;33.85;;;16.13;;
46415;SDS011;32620;51.704;7.822;2023-12-20T13:42:09;42.58;;;17.20;;
46415;SDS011;32620;51.704;7.822;2023-12-20T13:44:37;38.78;;;15.70;;
46415;SDS011;32620;51.704;7.822;2023-12-20T13:47:05;33.35;;;15.70;;
46415;SDS011;32620;51.704;7.822;2023-12-20T13:49:33;32.80;;;15.40;;
46415;SDS011;32620;51.704;7.822;2023-12-20T13:52:01;30.55;;;14.43;;
46415;SDS011;32620;51.704;7.822;2023-12-20T13:54:29;31.00;;;15.25;;
46415;SDS011;32620;51.704;7.822;2023-12-20T13:56:57;37.08;;;13.95;;
46415;SDS011;32620;51.704;7.822;2023-12-20T13:59:25;35.55;;;14.27;;
46415;SDS011;32620;51.704;7.822;2023-12-20T14:01:53;34.85;;;15.10;;
46415;SDS011;32620;51.704;7.822;2023-12-20T14:04:22;29.08;;;14.25;;
46415;SDS011;32620;51.704;7.822;2023-12-20T14:06:50;31.58;;;14.30;;
46415;SDS011;32620;51.704;7.822;2023-12-20T14:09:18;36.85;;;14.63;;
46415;SDS011;32620;51.704;7.822;2023-12-20T14:11:45;28.08;;;15.05;;
46415;SDS011;32620;51.704;7.822;2023-12-20T14:14:13;32.53;;;16.52;;
46415;SDS011;32620;51.704;7.822;2023-12-20T14:16:41;39.85;;;15.45;;
46415;SDS011;32620;51.704;7.822;2023-12-20T14:19:10;38.63;;;16.80;;
46415;SDS011;32620;51.704;7.822;2023-12-20T14:21:38;28.33;;;15.40;;